sensor_id;sensor_type;location;lat;lon;timestamp;P1;durP1;ratioP1;P2;durP2;ratioP2
6850;SDS011;3464;42.728;23.296;2022-10-17T00:01:05;31.37;;;17.90;;
6850;SDS011;3464;42.728;23.296;2022-10-17T00:03:32;30.30;;;16.23;;
6850;SDS011;3464;42.728;23.296;2022-10-17T00:05:58;29.87;;;17.17;;
6850;SDS011;3464;42.728;23.296;2022-10-17T00:08:25;30.00;;;15.80;;
6850;SDS011;3464;42.728;23.296;2022-10-17T00:10:56;32.13;;;17.83;;
6850;SDS011;3464;42.728;23.296;2022-10-17T00:13:23;28.87;;;16.20;;
6850;SDS011;3464;42.728;23.296;2022-10-17T00:15:49;29.93;;;17.83;;
6850;SDS011;3464;42.728;23.296;2022-10-17T00:18:16;31.90;;;16.73;;
6850;SDS011;3464;42.728;23.296;2022-10-17T00:20:42;32.47;;;18.30;;
6850;SDS011;3464;42.728;23.296;2022-10-17T00:23:09;30.40;;;18.50;;
6850;SDS011;3464;42.728;23.296;2022-10-17T00:25:35;32.87;;;17.53;;
6850;SDS011;3464;42.728;23.296;2022-10-17T00:28:02;36.53;;;17.77;;
6850;SDS011;3464;42.728;23.296;2022-10-17T00:30:29;31.77;;;18.30;;
6850;SDS011;3464;42.728;23.296;2022-10-17T00:32:56;33.80;;;16.80;;
6850;SDS011;3464;42.728;23.296;2022-10-17T00:35:22;28.30;;;15.73;;
6850;SDS011;3464;42.728;23.296;2022-10-17T00:37:48;24.80;;;14.40;;
6850;SDS011;3464;42.728;23.296;2022-10-17T00:40:15;24.40;;;14.67;;
6850;SDS011;3464;42.728;23.296;2022-10-17T00:42:42;26.60;;;14.63;;
6850;SDS011;3464;42.728;23.296;2022-10-17T00:45:14;23.53;;;12.80;;
6850;SDS011;3464;42.728;23.296;2022-10-17T00:47:38;26.90;;;14.50;;
6850;SDS011;3464;42.728;23.296;2022-10-17T00:50:04;24.60;;;13.40;;
6850;SDS011;3464;42.728;23.296;2022-10-17T00:52:31;25.83;;;14.90;;
6850;SDS011;3464;42.728;23.296;2022-10-17T00:55:07;24.63;;;14.63;;
6850;SDS011;3464;42.728;23.296;2022-10-17T00:57:36;29.17;;;15.70;;
6850;SDS011;3464;42.728;23.296;2022-10-17T01:00:04;25.37;;;14.70;;
6850;SDS011;3464;42.728;23.296;2022-10-17T01:02:29;27.17;;;15.83;;
6850;SDS011;3464;42.728;23.296;2022-10-17T01:04:55;24.90;;;15.13;;
6850;SDS011;3464;42.728;23.296;2022-10-17T01:07:22;30.27;;;16.57;;
6850;SDS011;3464;42.728;23.296;2022-10-17T01:09:50;28.73;;;15.67;;
6850;SDS011;3464;42.728;23.296;2022-10-17T01:12:21;34.40;;;17.20;;
6850;SDS011;3464;42.728;23.296;2022-10-17T01:14:58;34.00;;;17.70;;
6850;SDS011;3464;42.728;23.296;2022-10-17T01:20:19;28.00;;;16.10;;
6850;SDS011;3464;42.728;23.296;2022-10-17T01:25:51;34.97;;;17.00;;
6850;SDS011;3464;42.728;23.296;2022-10-17T01:31:05;30.47;;;16.87;;
6850;SDS011;3464;42.728;23.296;2022-10-17T01:33:56;30.80;;;17.37;;
6850;SDS011;3464;42.728;23.296;2022-10-17T01:36:46;27.87;;;16.73;;
6850;SDS011;3464;42.728;23.296;2022-10-17T01:39:21;36.07;;;17.10;;
6850;SDS011;3464;42.728;23.296;2022-10-17T01:41:49;25.27;;;14.40;;
6850;SDS011;3464;42.728;23.296;2022-10-17T01:44:16;25.87;;;15.80;;
6850;SDS011;3464;42.728;23.296;2022-10-17T01:46:42;29.10;;;16.03;;
6850;SDS011;3464;42.728;23.296;2022-10-17T01:49:09;25.80;;;15.73;;
6850;SDS011;3464;42.728;23.296;2022-10-17T01:51:37;25.87;;;15.43;;
6850;SDS011;3464;42.728;23.296;2022-10-17T01:54:06;26.73;;;14.50;;
6850;SDS011;3464;42.728;23.296;2022-10-17T01:56:33;27.00;;;15.03;;
6850;SDS011;3464;42.728;23.296;2022-10-17T01:59:02;27.07;;;15.73;;
6850;SDS011;3464;42.728;23.296;2022-10-17T02:01:27;28.27;;;15.83;;
6850;SDS011;3464;42.728;23.296;2022-10-17T02:03:53;30.97;;;16.43;;
6850;SDS011;3464;42.728;23.296;2022-10-17T02:06:21;32.33;;;16.47;;
6850;SDS011;3464;42.728;23.296;2022-10-17T02:08:49;29.50;;;17.47;;
6850;SDS011;3464;42.728;23.296;2022-10-17T02:11:16;27.87;;;16.10;;
6850;SDS011;3464;42.728;23.296;2022-10-17T02:13:45;28.40;;;15.40;;
6850;SDS011;3464;42.728;23.296;2022-10-17T02:18:56;28.20;;;16.30;;
6850;SDS011;3464;42.728;23.296;2022-10-17T02:21:39;25.33;;;15.00;;
6850;SDS011;3464;42.728;23.296;2022-10-17T02:24:17;25.80;;;14.50;;
6850;SDS011;3464;42.728;23.296;2022-10-17T02:26:48;24.90;;;14.67;;
6850;SDS011;3464;42.728;23.296;2022-10-17T02:29:15;26.37;;;15.00;;
6850;SDS011;3464;42.728;23.296;2022-10-17T02:31:45;30.57;;;15.60;;
6850;SDS011;3464;42.728;23.296;2022-10-17T02:34:13;26.87;;;10.10;;
6850;SDS011;3464;42.728;23.296;2022-10-17T02:36:42;18.50;;;9.77;;
6850;SDS011;3464;42.728;23.296;2022-10-17T02:39:06;21.57;;;10.60;;
6850;SDS011;3464;42.728;23.296;2022-10-17T02:41:32;20.67;;;11.70;;
6850;SDS011;3464;42.728;23.296;2022-10-17T02:43:59;19.90;;;10.80;;
6850;SDS011;3464;42.728;23.296;2022-10-17T02:46:25;20.10;;;11.10;;
6850;SDS011;3464;42.728;23.296;2022-10-17T02:48:53;19.73;;;11.10;;
6850;SDS011;3464;42.728;23.296;2022-10-17T02:51:32;17.60;;;10.63;;
6850;SDS011;3464;42.728;23.296;2022-10-17T02:54:08;21.20;;;11.40;;
6850;SDS011;3464;42.728;23.296;2022-10-17T02:56:38;20.43;;;11.00;;
6850;SDS011;3464;42.728;23.296;2022-10-17T02:59:02;20.10;;;11.23;;
6850;SDS011;3464;42.728;23.296;2022-10-17T03:01:29;22.70;;;12.17;;
6850;SDS011;3464;42.728;23.296;2022-10-17T03:06:29;23.27;;;12.50;;
6850;SDS011;3464;42.728;23.296;2022-10-17T03:08:55;21.03;;;11.47;;
6850;SDS011;3464;42.728;23.296;2022-10-17T03:11:22;19.93;;;10.50;;
6850;SDS011;3464;42.728;23.296;2022-10-17T03:13:48;18.20;;;10.07;;
6850;SDS011;3464;42.728;23.296;2022-10-17T03:16:15;20.00;;;10.53;;
6850;SDS011;3464;42.728;23.296;2022-10-17T03:18:41;20.57;;;11.20;;
6850;SDS011;3464;42.728;23.296;2022-10-17T03:21:08;20.13;;;10.97;;
6850;SDS011;3464;42.728;23.296;2022-10-17T03:23:34;24.00;;;12.40;;
6850;SDS011;3464;42.728;23.296;2022-10-17T03:26:03;25.73;;;13.53;;
6850;SDS011;3464;42.728;23.296;2022-10-17T03:28:30;22.90;;;12.80;;
6850;SDS011;3464;42.728;23.296;2022-10-17T03:30:57;23.80;;;12.57;;
6850;SDS011;3464;42.728;23.296;2022-10-17T03:33:24;21.77;;;12.40;;
6850;SDS011;3464;42.728;23.296;2022-10-17T03:35:50;21.57;;;13.03;;
6850;SDS011;3464;42.728;23.296;2022-10-17T03:38:17;26.17;;;14.67;;
6850;SDS011;3464;42.728;23.296;2022-10-17T03:40:43;22.70;;;12.47;;
6850;SDS011;3464;42.728;23.296;2022-10-17T03:43:10;24.43;;;11.80;;
6850;SDS011;3464;42.728;23.296;2022-10-17T03:45:36;24.53;;;13.00;;
6850;SDS011;3464;42.728;23.296;2022-10-17T03:48:03;22.97;;;12.10;;
6850;SDS011;3464;42.728;23.296;2022-10-17T03:50:30;26.27;;;13.07;;
6850;SDS011;3464;42.728;23.296;2022-10-17T03:52:57;29.07;;;13.90;;
6850;SDS011;3464;42.728;23.296;2022-10-17T03:55:23;27.00;;;13.77;;
6850;SDS011;3464;42.728;23.296;2022-10-17T03:57:50;22.17;;;12.20;;
6850;SDS011;3464;42.728;23.296;2022-10-17T04:00:16;28.20;;;12.23;;
6850;SDS011;3464;42.728;23.296;2022-10-17T04:02:43;27.10;;;14.07;;
6850;SDS011;3464;42.728;23.296;2022-10-17T04:05:09;22.93;;;12.03;;
6850;SDS011;3464;42.728;23.296;2022-10-17T04:07:36;30.17;;;13.30;;
6850;SDS011;3464;42.728;23.296;2022-10-17T04:10:03;22.13;;;12.77;;
6850;SDS011;3464;42.728;23.296;2022-10-17T04:12:29;26.13;;;12.90;;
6850;SDS011;3464;42.728;23.296;2022-10-17T04:14:56;24.77;;;14.10;;
6850;SDS011;3464;42.728;23.296;2022-10-17T04:17:22;23.67;;;12.53;;
6850;SDS011;3464;42.728;23.296;2022-10-17T04:19:49;25.23;;;12.30;;
6850;SDS011;3464;42.728;23.296;2022-10-17T04:22:16;26.20;;;13.40;;
6850;SDS011;3464;42.728;23.296;2022-10-17T04:24:43;23.53;;;13.30;;
6850;SDS011;3464;42.728;23.296;2022-10-17T04:27:09;23.87;;;12.23;;
6850;SDS011;3464;42.728;23.296;2022-10-17T04:29:36;22.17;;;11.70;;
6850;SDS011;3464;42.728;23.296;2022-10-17T04:32:03;20.87;;;11.50;;
6850;SDS011;3464;42.728;23.296;2022-10-17T04:34:29;30.53;;;16.90;;
6850;SDS011;3464;42.728;23.296;2022-10-17T04:36:56;24.30;;;12.83;;
6850;SDS011;3464;42.728;23.296;2022-10-17T04:39:22;26.40;;;12.67;;
6850;SDS011;3464;42.728;23.296;2022-10-17T04:41:49;24.70;;;12.80;;
6850;SDS011;3464;42.728;23.296;2022-10-17T04:44:15;27.80;;;14.47;;
6850;SDS011;3464;42.728;23.296;2022-10-17T04:46:42;27.80;;;14.67;;
6850;SDS011;3464;42.728;23.296;2022-10-17T04:49:09;29.80;;;15.40;;
6850;SDS011;3464;42.728;23.296;2022-10-17T04:51:35;27.30;;;14.80;;
6850;SDS011;3464;42.728;23.296;2022-10-17T04:54:02;30.80;;;16.27;;
6850;SDS011;3464;42.728;23.296;2022-10-17T04:56:28;31.77;;;18.40;;
6850;SDS011;3464;42.728;23.296;2022-10-17T04:58:55;39.70;;;18.30;;
6850;SDS011;3464;42.728;23.296;2022-10-17T05:01:21;32.63;;;17.80;;
6850;SDS011;3464;42.728;23.296;2022-10-17T05:03:48;27.83;;;15.87;;
6850;SDS011;3464;42.728;23.296;2022-10-17T05:06:15;39.43;;;18.43;;
6850;SDS011;3464;42.728;23.296;2022-10-17T05:08:41;33.17;;;16.53;;
6850;SDS011;3464;42.728;23.296;2022-10-17T05:13:41;32.20;;;16.73;;
6850;SDS011;3464;42.728;23.296;2022-10-17T05:16:07;24.97;;;12.80;;
6850;SDS011;3464;42.728;23.296;2022-10-17T05:18:34;23.27;;;12.10;;
6850;SDS011;3464;42.728;23.296;2022-10-17T05:21:02;28.53;;;13.10;;
6850;SDS011;3464;42.728;23.296;2022-10-17T05:23:28;25.00;;;12.00;;
6850;SDS011;3464;42.728;23.296;2022-10-17T05:25:55;26.07;;;12.80;;
6850;SDS011;3464;42.728;23.296;2022-10-17T05:28:22;24.13;;;12.40;;
6850;SDS011;3464;42.728;23.296;2022-10-17T05:30:48;28.17;;;11.73;;
6850;SDS011;3464;42.728;23.296;2022-10-17T05:33:15;28.73;;;12.00;;
6850;SDS011;3464;42.728;23.296;2022-10-17T05:35:41;25.90;;;11.77;;
6850;SDS011;3464;42.728;23.296;2022-10-17T05:38:08;23.53;;;11.50;;
6850;SDS011;3464;42.728;23.296;2022-10-17T05:40:34;26.63;;;11.57;;
6850;SDS011;3464;42.728;23.296;2022-10-17T05:43:01;25.10;;;11.80;;
6850;SDS011;3464;42.728;23.296;2022-10-17T05:45:28;26.83;;;11.23;;
6850;SDS011;3464;42.728;23.296;2022-10-17T05:47:55;21.93;;;10.90;;
6850;SDS011;3464;42.728;23.296;2022-10-17T05:50:21;28.53;;;10.67;;
6850;SDS011;3464;42.728;23.296;2022-10-17T05:52:51;25.80;;;10.27;;
6850;SDS011;3464;42.728;23.296;2022-10-17T05:55:15;21.90;;;10.03;;
6850;SDS011;3464;42.728;23.296;2022-10-17T05:57:41;24.37;;;11.30;;
6850;SDS011;3464;42.728;23.296;2022-10-17T06:00:08;25.93;;;10.83;;
6850;SDS011;3464;42.728;23.296;2022-10-17T06:02:35;26.03;;;10.67;;
6850;SDS011;3464;42.728;23.296;2022-10-17T06:05:02;29.00;;;11.30;;
6850;SDS011;3464;42.728;23.296;2022-10-17T06:07:28;21.70;;;11.50;;
6850;SDS011;3464;42.728;23.296;2022-10-17T06:09:55;26.33;;;12.63;;
6850;SDS011;3464;42.728;23.296;2022-10-17T06:12:21;26.20;;;12.67;;
6850;SDS011;3464;42.728;23.296;2022-10-17T06:14:48;23.30;;;12.73;;
6850;SDS011;3464;42.728;23.296;2022-10-17T06:17:15;23.43;;;11.80;;
6850;SDS011;3464;42.728;23.296;2022-10-17T06:19:41;28.37;;;11.97;;
6850;SDS011;3464;42.728;23.296;2022-10-17T06:22:08;23.90;;;12.20;;
6850;SDS011;3464;42.728;23.296;2022-10-17T06:24:34;23.77;;;10.40;;
6850;SDS011;3464;42.728;23.296;2022-10-17T06:27:01;25.93;;;11.30;;
6850;SDS011;3464;42.728;23.296;2022-10-17T06:29:27;24.30;;;12.30;;
6850;SDS011;3464;42.728;23.296;2022-10-17T06:31:54;27.90;;;13.73;;
6850;SDS011;3464;42.728;23.296;2022-10-17T06:34:21;25.60;;;13.07;;
6850;SDS011;3464;42.728;23.296;2022-10-17T06:36:47;27.83;;;13.10;;
6850;SDS011;3464;42.728;23.296;2022-10-17T06:39:14;23.00;;;12.13;;
6850;SDS011;3464;42.728;23.296;2022-10-17T06:41:40;27.73;;;12.70;;
6850;SDS011;3464;42.728;23.296;2022-10-17T06:44:07;35.83;;;12.37;;
6850;SDS011;3464;42.728;23.296;2022-10-17T06:46:33;24.30;;;11.80;;
6850;SDS011;3464;42.728;23.296;2022-10-17T06:49:00;27.07;;;12.27;;
6850;SDS011;3464;42.728;23.296;2022-10-17T06:51:27;27.37;;;11.53;;
6850;SDS011;3464;42.728;23.296;2022-10-17T06:53:53;24.93;;;11.60;;
6850;SDS011;3464;42.728;23.296;2022-10-17T06:56:20;25.70;;;12.40;;
6850;SDS011;3464;42.728;23.296;2022-10-17T06:58:46;20.23;;;10.90;;
6850;SDS011;3464;42.728;23.296;2022-10-17T07:01:13;26.50;;;12.67;;
6850;SDS011;3464;42.728;23.296;2022-10-17T07:03:39;27.97;;;11.33;;
6850;SDS011;3464;42.728;23.296;2022-10-17T07:06:06;35.23;;;12.27;;
6850;SDS011;3464;42.728;23.296;2022-10-17T07:08:32;27.10;;;12.33;;
6850;SDS011;3464;42.728;23.296;2022-10-17T07:11:07;29.80;;;12.40;;
6850;SDS011;3464;42.728;23.296;2022-10-17T07:13:26;24.57;;;12.30;;
6850;SDS011;3464;42.728;23.296;2022-10-17T07:15:52;23.30;;;12.40;;
6850;SDS011;3464;42.728;23.296;2022-10-17T07:18:19;24.43;;;12.90;;
6850;SDS011;3464;42.728;23.296;2022-10-17T07:20:51;26.70;;;12.60;;
6850;SDS011;3464;42.728;23.296;2022-10-17T07:23:19;26.30;;;14.00;;
6850;SDS011;3464;42.728;23.296;2022-10-17T07:25:46;28.20;;;13.87;;
6850;SDS011;3464;42.728;23.296;2022-10-17T07:28:13;30.17;;;14.77;;
6850;SDS011;3464;42.728;23.296;2022-10-17T07:30:39;25.67;;;13.77;;
6850;SDS011;3464;42.728;23.296;2022-10-17T07:33:05;26.20;;;14.70;;
6850;SDS011;3464;42.728;23.296;2022-10-17T07:35:32;31.03;;;15.43;;
6850;SDS011;3464;42.728;23.296;2022-10-17T07:37:59;33.17;;;14.27;;
6850;SDS011;3464;42.728;23.296;2022-10-17T07:40:25;28.37;;;14.13;;
6850;SDS011;3464;42.728;23.296;2022-10-17T07:42:52;31.70;;;14.13;;
6850;SDS011;3464;42.728;23.296;2022-10-17T07:45:20;31.57;;;15.10;;
6850;SDS011;3464;42.728;23.296;2022-10-17T07:47:46;27.40;;;14.83;;
6850;SDS011;3464;42.728;23.296;2022-10-17T07:50:13;37.93;;;15.10;;
6850;SDS011;3464;42.728;23.296;2022-10-17T07:52:39;32.73;;;15.17;;
6850;SDS011;3464;42.728;23.296;2022-10-17T07:55:07;27.83;;;15.07;;
6850;SDS011;3464;42.728;23.296;2022-10-17T07:57:34;27.67;;;13.67;;
6850;SDS011;3464;42.728;23.296;2022-10-17T08:00:00;29.80;;;15.10;;
6850;SDS011;3464;42.728;23.296;2022-10-17T08:02:27;26.50;;;13.73;;
6850;SDS011;3464;42.728;23.296;2022-10-17T08:04:53;35.40;;;18.37;;
6850;SDS011;3464;42.728;23.296;2022-10-17T08:07:20;36.83;;;16.63;;
6850;SDS011;3464;42.728;23.296;2022-10-17T08:09:46;69.87;;;37.27;;
6850;SDS011;3464;42.728;23.296;2022-10-17T08:12:13;56.77;;;32.63;;
6850;SDS011;3464;42.728;23.296;2022-10-17T08:14:40;32.57;;;14.03;;
6850;SDS011;3464;42.728;23.296;2022-10-17T08:17:06;30.57;;;14.70;;
6850;SDS011;3464;42.728;23.296;2022-10-17T08:19:33;34.10;;;15.90;;
6850;SDS011;3464;42.728;23.296;2022-10-17T08:21:59;27.50;;;14.90;;
6850;SDS011;3464;42.728;23.296;2022-10-17T08:24:26;39.07;;;18.90;;
6850;SDS011;3464;42.728;23.296;2022-10-17T08:26:52;27.20;;;15.23;;
6850;SDS011;3464;42.728;23.296;2022-10-17T08:29:19;34.80;;;17.40;;
6850;SDS011;3464;42.728;23.296;2022-10-17T08:31:45;36.13;;;16.93;;
6850;SDS011;3464;42.728;23.296;2022-10-17T08:34:12;34.40;;;16.30;;
6850;SDS011;3464;42.728;23.296;2022-10-17T08:36:39;39.87;;;21.20;;
6850;SDS011;3464;42.728;23.296;2022-10-17T08:39:06;40.43;;;20.27;;
6850;SDS011;3464;42.728;23.296;2022-10-17T08:41:37;37.20;;;17.53;;
6850;SDS011;3464;42.728;23.296;2022-10-17T08:44:11;31.40;;;15.80;;
6850;SDS011;3464;42.728;23.296;2022-10-17T08:46:36;29.00;;;15.60;;
6850;SDS011;3464;42.728;23.296;2022-10-17T08:49:02;31.63;;;15.50;;
6850;SDS011;3464;42.728;23.296;2022-10-17T08:51:29;29.53;;;15.63;;
6850;SDS011;3464;42.728;23.296;2022-10-17T08:53:57;32.70;;;14.73;;
6850;SDS011;3464;42.728;23.296;2022-10-17T08:56:25;33.30;;;14.17;;
6850;SDS011;3464;42.728;23.296;2022-10-17T08:58:50;34.50;;;18.77;;
6850;SDS011;3464;42.728;23.296;2022-10-17T09:01:35;31.33;;;15.03;;
6850;SDS011;3464;42.728;23.296;2022-10-17T09:04:06;28.43;;;13.60;;
6850;SDS011;3464;42.728;23.296;2022-10-17T09:06:49;26.33;;;13.10;;
6850;SDS011;3464;42.728;23.296;2022-10-17T09:09:23;30.37;;;15.13;;
6850;SDS011;3464;42.728;23.296;2022-10-17T09:12:22;26.77;;;11.13;;
6850;SDS011;3464;42.728;23.296;2022-10-17T09:15:58;24.77;;;11.20;;
6850;SDS011;3464;42.728;23.296;2022-10-17T09:20:22;22.37;;;9.00;;
6850;SDS011;3464;42.728;23.296;2022-10-17T09:25:34;27.23;;;9.20;;
6850;SDS011;3464;42.728;23.296;2022-10-17T09:28:03;24.27;;;9.27;;
6850;SDS011;3464;42.728;23.296;2022-10-17T09:30:35;30.60;;;10.20;;
6850;SDS011;3464;42.728;23.296;2022-10-17T09:33:11;23.07;;;10.50;;
6850;SDS011;3464;42.728;23.296;2022-10-17T09:35:38;26.73;;;9.47;;
6850;SDS011;3464;42.728;23.296;2022-10-17T09:38:06;24.13;;;8.90;;
6850;SDS011;3464;42.728;23.296;2022-10-17T09:40:33;24.93;;;8.53;;
6850;SDS011;3464;42.728;23.296;2022-10-17T09:43:00;17.77;;;6.93;;
6850;SDS011;3464;42.728;23.296;2022-10-17T09:45:27;38.70;;;8.60;;
6850;SDS011;3464;42.728;23.296;2022-10-17T09:48:11;20.30;;;7.47;;
6850;SDS011;3464;42.728;23.296;2022-10-17T09:50:37;16.50;;;5.87;;
6850;SDS011;3464;42.728;23.296;2022-10-17T09:53:11;16.20;;;7.10;;
6850;SDS011;3464;42.728;23.296;2022-10-17T09:55:39;14.73;;;5.93;;
6850;SDS011;3464;42.728;23.296;2022-10-17T09:58:05;15.40;;;6.03;;
6850;SDS011;3464;42.728;23.296;2022-10-17T10:00:32;19.17;;;6.30;;
6850;SDS011;3464;42.728;23.296;2022-10-17T10:05:34;21.87;;;7.30;;
6850;SDS011;3464;42.728;23.296;2022-10-17T10:08:10;14.00;;;5.03;;
6850;SDS011;3464;42.728;23.296;2022-10-17T10:10:40;17.03;;;4.97;;
6850;SDS011;3464;42.728;23.296;2022-10-17T10:13:16;15.13;;;5.10;;
6850;SDS011;3464;42.728;23.296;2022-10-17T10:15:42;12.60;;;4.90;;
6850;SDS011;3464;42.728;23.296;2022-10-17T10:18:27;14.00;;;3.90;;
6850;SDS011;3464;42.728;23.296;2022-10-17T10:21:03;13.57;;;3.10;;
6850;SDS011;3464;42.728;23.296;2022-10-17T10:23:36;15.67;;;3.70;;
6850;SDS011;3464;42.728;23.296;2022-10-17T10:28:39;14.77;;;3.63;;
6850;SDS011;3464;42.728;23.296;2022-10-17T10:31:06;11.30;;;4.00;;
6850;SDS011;3464;42.728;23.296;2022-10-17T10:33:33;16.70;;;4.50;;
6850;SDS011;3464;42.728;23.296;2022-10-17T10:36:00;12.93;;;4.07;;
6850;SDS011;3464;42.728;23.296;2022-10-17T10:38:28;12.27;;;3.63;;
6850;SDS011;3464;42.728;23.296;2022-10-17T10:40:54;12.30;;;3.07;;
6850;SDS011;3464;42.728;23.296;2022-10-17T10:43:21;15.43;;;3.47;;
6850;SDS011;3464;42.728;23.296;2022-10-17T10:45:47;15.13;;;4.00;;
6850;SDS011;3464;42.728;23.296;2022-10-17T10:51:07;10.40;;;3.20;;
6850;SDS011;3464;42.728;23.296;2022-10-17T10:53:42;17.90;;;3.40;;
6850;SDS011;3464;42.728;23.296;2022-10-17T10:56:15;9.93;;;3.00;;
6850;SDS011;3464;42.728;23.296;2022-10-17T10:59:01;12.23;;;3.20;;
6850;SDS011;3464;42.728;23.296;2022-10-17T11:01:42;10.37;;;3.23;;
6850;SDS011;3464;42.728;23.296;2022-10-17T11:04:16;11.00;;;3.27;;
6850;SDS011;3464;42.728;23.296;2022-10-17T11:06:39;15.80;;;3.50;;
6850;SDS011;3464;42.728;23.296;2022-10-17T11:09:12;10.53;;;3.13;;
6850;SDS011;3464;42.728;23.296;2022-10-17T11:11:38;9.80;;;2.63;;
6850;SDS011;3464;42.728;23.296;2022-10-17T11:14:07;16.40;;;3.67;;
6850;SDS011;3464;42.728;23.296;2022-10-17T11:16:36;11.53;;;3.40;;
6850;SDS011;3464;42.728;23.296;2022-10-17T11:24:24;18.83;;;3.90;;
6850;SDS011;3464;42.728;23.296;2022-10-17T11:26:53;13.03;;;4.10;;
6850;SDS011;3464;42.728;23.296;2022-10-17T11:29:18;14.90;;;4.27;;
6850;SDS011;3464;42.728;23.296;2022-10-17T11:31:46;12.87;;;3.87;;
6850;SDS011;3464;42.728;23.296;2022-10-17T11:34:14;17.33;;;4.00;;
6850;SDS011;3464;42.728;23.296;2022-10-17T11:36:40;14.30;;;4.20;;
6850;SDS011;3464;42.728;23.296;2022-10-17T11:39:07;11.77;;;3.00;;
6850;SDS011;3464;42.728;23.296;2022-10-17T11:41:39;11.77;;;3.20;;
6850;SDS011;3464;42.728;23.296;2022-10-17T11:44:12;13.50;;;3.40;;
6850;SDS011;3464;42.728;23.296;2022-10-17T11:46:37;12.30;;;3.70;;
6850;SDS011;3464;42.728;23.296;2022-10-17T11:49:11;12.80;;;3.60;;
6850;SDS011;3464;42.728;23.296;2022-10-17T11:51:42;12.77;;;3.60;;
6850;SDS011;3464;42.728;23.296;2022-10-17T11:54:12;13.53;;;3.40;;
6850;SDS011;3464;42.728;23.296;2022-10-17T11:56:42;13.43;;;3.90;;
6850;SDS011;3464;42.728;23.296;2022-10-17T12:01:51;15.43;;;3.50;;
6850;SDS011;3464;42.728;23.296;2022-10-17T12:04:20;17.90;;;3.27;;
6850;SDS011;3464;42.728;23.296;2022-10-17T12:07:09;11.67;;;3.13;;
6850;SDS011;3464;42.728;23.296;2022-10-17T12:09:38;10.30;;;3.33;;
6850;SDS011;3464;42.728;23.296;2022-10-17T12:12:06;10.50;;;3.20;;
6850;SDS011;3464;42.728;23.296;2022-10-17T12:14:36;10.70;;;3.40;;
6850;SDS011;3464;42.728;23.296;2022-10-17T12:17:02;15.00;;;3.57;;
6850;SDS011;3464;42.728;23.296;2022-10-17T12:19:30;13.17;;;3.73;;
6850;SDS011;3464;42.728;23.296;2022-10-17T12:22:14;10.70;;;3.57;;
6850;SDS011;3464;42.728;23.296;2022-10-17T12:24:56;14.03;;;3.60;;
6850;SDS011;3464;42.728;23.296;2022-10-17T12:27:33;12.73;;;3.80;;
6850;SDS011;3464;42.728;23.296;2022-10-17T12:30:05;13.00;;;3.40;;
6850;SDS011;3464;42.728;23.296;2022-10-17T12:32:30;12.70;;;3.83;;
6850;SDS011;3464;42.728;23.296;2022-10-17T12:34:56;15.60;;;3.50;;
6850;SDS011;3464;42.728;23.296;2022-10-17T12:45:54;11.73;;;3.90;;
6850;SDS011;3464;42.728;23.296;2022-10-17T12:51:19;16.30;;;3.70;;
6850;SDS011;3464;42.728;23.296;2022-10-17T12:53:50;9.60;;;3.27;;
6850;SDS011;3464;42.728;23.296;2022-10-17T12:56:37;13.70;;;3.50;;
6850;SDS011;3464;42.728;23.296;2022-10-17T12:59:07;10.20;;;3.30;;
6850;SDS011;3464;42.728;23.296;2022-10-17T13:01:33;13.10;;;3.50;;
6850;SDS011;3464;42.728;23.296;2022-10-17T13:03:59;14.03;;;3.40;;
6850;SDS011;3464;42.728;23.296;2022-10-17T13:06:28;11.90;;;3.27;;
6850;SDS011;3464;42.728;23.296;2022-10-17T13:08:58;10.80;;;3.03;;
6850;SDS011;3464;42.728;23.296;2022-10-17T13:11:24;11.47;;;3.73;;
6850;SDS011;3464;42.728;23.296;2022-10-17T13:13:51;9.20;;;2.90;;
6850;SDS011;3464;42.728;23.296;2022-10-17T13:18:56;11.67;;;3.20;;
6850;SDS011;3464;42.728;23.296;2022-10-17T13:21:22;10.17;;;3.20;;
6850;SDS011;3464;42.728;23.296;2022-10-17T13:23:48;10.10;;;3.40;;
6850;SDS011;3464;42.728;23.296;2022-10-17T13:26:16;10.67;;;2.90;;
6850;SDS011;3464;42.728;23.296;2022-10-17T13:28:42;11.40;;;3.37;;
6850;SDS011;3464;42.728;23.296;2022-10-17T13:33:47;11.50;;;3.60;;
6850;SDS011;3464;42.728;23.296;2022-10-17T13:36:13;12.17;;;3.23;;
6850;SDS011;3464;42.728;23.296;2022-10-17T13:38:40;10.40;;;2.90;;
6850;SDS011;3464;42.728;23.296;2022-10-17T13:41:09;14.87;;;3.43;;
6850;SDS011;3464;42.728;23.296;2022-10-17T13:43:33;12.40;;;3.20;;
6850;SDS011;3464;42.728;23.296;2022-10-17T13:46:00;11.30;;;2.70;;
6850;SDS011;3464;42.728;23.296;2022-10-17T13:48:26;10.17;;;3.23;;
6850;SDS011;3464;42.728;23.296;2022-10-17T13:50:54;13.90;;;3.30;;
6850;SDS011;3464;42.728;23.296;2022-10-17T13:53:28;10.50;;;3.47;;
6850;SDS011;3464;42.728;23.296;2022-10-17T13:56:00;10.07;;;3.37;;
6850;SDS011;3464;42.728;23.296;2022-10-17T13:58:30;11.10;;;3.73;;
6850;SDS011;3464;42.728;23.296;2022-10-17T14:00:56;13.23;;;3.90;;
6850;SDS011;3464;42.728;23.296;2022-10-17T14:03:22;13.63;;;3.80;;
6850;SDS011;3464;42.728;23.296;2022-10-17T14:06:23;13.10;;;4.17;;
6850;SDS011;3464;42.728;23.296;2022-10-17T14:08:45;13.10;;;4.03;;
6850;SDS011;3464;42.728;23.296;2022-10-17T14:11:13;11.70;;;3.80;;
6850;SDS011;3464;42.728;23.296;2022-10-17T14:13:39;16.80;;;4.00;;
6850;SDS011;3464;42.728;23.296;2022-10-17T14:16:06;13.33;;;4.50;;
6850;SDS011;3464;42.728;23.296;2022-10-17T14:18:33;13.30;;;4.07;;
6850;SDS011;3464;42.728;23.296;2022-10-17T14:20:59;11.00;;;3.70;;
6850;SDS011;3464;42.728;23.296;2022-10-17T14:23:28;15.07;;;3.87;;
6850;SDS011;3464;42.728;23.296;2022-10-17T14:28:28;12.63;;;3.80;;
6850;SDS011;3464;42.728;23.296;2022-10-17T14:31:07;10.90;;;3.67;;
6850;SDS011;3464;42.728;23.296;2022-10-17T14:33:23;12.33;;;4.00;;
6850;SDS011;3464;42.728;23.296;2022-10-17T14:35:50;14.53;;;3.70;;
6850;SDS011;3464;42.728;23.296;2022-10-17T14:38:15;16.33;;;4.07;;
6850;SDS011;3464;42.728;23.296;2022-10-17T14:40:48;14.43;;;3.90;;
6850;SDS011;3464;42.728;23.296;2022-10-17T14:43:20;13.10;;;4.37;;
6850;SDS011;3464;42.728;23.296;2022-10-17T14:45:45;13.80;;;4.23;;
6850;SDS011;3464;42.728;23.296;2022-10-17T14:48:13;11.77;;;4.17;;
6850;SDS011;3464;42.728;23.296;2022-10-17T14:50:38;12.03;;;4.00;;
6850;SDS011;3464;42.728;23.296;2022-10-17T14:53:18;16.00;;;3.70;;
6850;SDS011;3464;42.728;23.296;2022-10-17T14:55:55;12.17;;;4.23;;
6850;SDS011;3464;42.728;23.296;2022-10-17T14:58:23;13.67;;;4.23;;
6850;SDS011;3464;42.728;23.296;2022-10-17T15:00:48;16.70;;;4.40;;
6850;SDS011;3464;42.728;23.296;2022-10-17T15:03:14;16.73;;;4.50;;
6850;SDS011;3464;42.728;23.296;2022-10-17T15:05:41;12.70;;;4.37;;
6850;SDS011;3464;42.728;23.296;2022-10-17T15:08:11;11.57;;;4.33;;
6850;SDS011;3464;42.728;23.296;2022-10-17T15:10:37;14.07;;;4.57;;
6850;SDS011;3464;42.728;23.296;2022-10-17T15:13:04;16.43;;;4.30;;
6850;SDS011;3464;42.728;23.296;2022-10-17T15:15:31;15.23;;;4.90;;
6850;SDS011;3464;42.728;23.296;2022-10-17T15:17:57;12.50;;;4.07;;
6850;SDS011;3464;42.728;23.296;2022-10-17T15:20:24;13.63;;;4.03;;
6850;SDS011;3464;42.728;23.296;2022-10-17T15:22:51;12.23;;;4.37;;
6850;SDS011;3464;42.728;23.296;2022-10-17T15:25:16;15.30;;;4.47;;
6850;SDS011;3464;42.728;23.296;2022-10-17T15:27:43;16.20;;;4.50;;
6850;SDS011;3464;42.728;23.296;2022-10-17T15:30:15;14.53;;;4.80;;
6850;SDS011;3464;42.728;23.296;2022-10-17T15:32:41;16.97;;;5.00;;
6850;SDS011;3464;42.728;23.296;2022-10-17T15:35:07;13.50;;;4.70;;
6850;SDS011;3464;42.728;23.296;2022-10-17T15:37:36;15.07;;;4.83;;
6850;SDS011;3464;42.728;23.296;2022-10-17T15:40:01;13.63;;;4.43;;
6850;SDS011;3464;42.728;23.296;2022-10-17T15:42:28;14.10;;;4.33;;
6850;SDS011;3464;42.728;23.296;2022-10-17T15:44:55;14.13;;;4.50;;